Time;durP1;ratioP1;P1;durP2;ratioP2;P2;SDS_P1;SDS_P2;PMS_P1;PMS_P2;Temp;Humidity;BMP_temperature;BMP_pressure;BME280_temperature;BME280_humidity;BME280_pressure;Samples;Min_cycle;Max_cycle;Signal;HPM_P1;HPM_P2
2021/10/17 00:00:23;;;;;;;44.08;22.52;;;6.90;99.90;;;6.23;96.28;97945.19;5046573;28;20132;-73
2021/10/17 00:02:51;;;;;;;31.02;15.07;;;7.00;99.90;;;6.17;94.90;97936.72;5043740;28;20132;-72
2021/10/17 00:05:22;;;;;;;29.05;15.10;;;7.10;99.90;;;6.17;93.02;97942.72;5043167;28;20271;-72
2021/10/17 00:07:50;;;;;;;29.17;14.52;;;7.00;99.90;;;6.02;93.13;97938.72;5046227;28;20049;-73
2021/10/17 00:10:29;;;;;;;19.38;10.63;;;7.00;99.90;;;5.98;91.87;97937.06;5047561;28;20136;-72
2021/10/17 00:12:59;;;;;;;16.98;10.65;;;6.90;99.90;;;5.92;92.23;97941.44;5043256;28;20037;-73
2021/10/17 00:15:28;;;;;;;27.02;15.13;;;6.90;99.90;;;5.95;92.61;97947.41;5045422;28;20072;-72
2021/10/17 00:17:57;;;;;;;29.75;14.43;;;6.80;99.90;;;5.95;92.60;97949.97;5042779;28;20219;-72
2021/10/17 00:20:24;;;;;;;26.73;14.38;;;6.80;99.90;;;5.95;93.17;97947.41;5045614;28;20053;-70
2021/10/17 00:22:52;;;;;;;22.48;12.40;;;6.80;99.90;;;5.99;92.50;97938.75;5046595;28;20165;-72
2021/10/17 00:25:20;;;;;;;19.40;11.48;;;6.90;99.90;;;5.98;92.06;97943.94;5044456;28;20072;-73
2021/10/17 00:27:48;;;;;;;29.50;14.80;;;6.90;99.90;;;5.86;93.17;97944.97;5047810;28;20076;-72
2021/10/17 00:30:15;;;;;;;33.70;18.67;;;6.90;99.90;;;5.61;94.09;97944.53;5043359;28;20045;-72
2021/10/17 00:32:43;;;;;;;35.42;20.50;;;6.90;99.90;;;5.34;94.21;97943.28;5041645;28;20056;-72
2021/10/17 00:35:12;;;;;;;35.22;18.65;;;6.90;99.90;;;5.29;94.28;97933.06;5043933;28;20138;-73
2021/10/17 00:37:40;;;;;;;34.25;18.95;;;6.80;99.90;;;5.44;93.56;97937.94;5046023;28;20430;-72
2021/10/17 00:40:17;;;;;;;26.20;14.30;;;6.80;99.90;;;5.83;92.27;97939.88;5044981;28;20088;-73
2021/10/17 00:42:47;;;;;;;34.60;17.85;;;6.90;99.90;;;5.58;92.15;97935.13;5046004;28;20661;-72
2021/10/17 00:45:19;;;;;;;27.88;15.65;;;6.90;99.90;;;5.66;92.44;97935.03;5046091;28;20119;-72
2021/10/17 00:47:47;;;;;;;24.65;14.95;;;6.90;99.90;;;5.73;91.92;97928.06;5043694;28;20083;-73
2021/10/17 00:50:14;;;;;;;25.55;15.25;;;7.00;99.90;;;5.78;91.84;97929.66;5044076;28;20079;-72
2021/10/17 00:52:44;;;;;;;25.60;14.30;;;7.00;99.90;;;5.80;91.63;97933.06;5046351;28;20076;-73
2021/10/17 00:55:14;;;;;;;25.83;15.40;;;7.00;99.90;;;6.04;90.73;97915.47;5045864;28;20049;-73
2021/10/17 00:57:42;;;;;;;27.25;13.57;;;7.10;99.90;;;6.13;90.01;97919.59;5048745;28;20080;-72
2021/10/17 01:00:12;;;;;;;22.40;13.75;;;7.10;99.90;;;6.11;90.02;97923.94;5039718;28;20159;-72
2021/10/17 01:02:39;;;;;;;25.55;15.05;;;7.10;99.90;;;6.07;90.40;97921.44;5062347;28;20129;-73
2021/10/17 01:05:12;;;;;;;22.77;13.32;;;7.20;99.90;;;6.15;90.31;97918.69;5027661;28;20073;-72
2021/10/17 01:07:40;;;;;;;22.50;13.65;;;7.20;99.90;;;6.18;90.29;97917.78;5046463;28;20098;-72
2021/10/17 01:10:07;;;;;;;23.90;12.90;;;7.20;99.90;;;6.26;90.16;97921.06;5044481;28;20207;-73
2021/10/17 01:12:34;;;;;;;24.33;13.73;;;7.20;99.90;;;6.28;89.85;97920.16;5044277;28;20073;-73
2021/10/17 01:15:03;;;;;;;25.83;15.80;;;7.30;99.90;;;6.14;90.89;97918.75;5044164;28;20161;-72
2021/10/17 01:17:30;;;;;;;24.23;13.60;;;7.30;99.90;;;6.31;90.21;97911.50;5044729;28;20048;-72
2021/10/17 01:19:57;;;;;;;21.50;13.02;;;7.30;99.90;;;6.38;89.80;97907.91;5041559;28;20072;-72
2021/10/17 01:22:25;;;;;;;23.52;13.00;;;7.30;99.90;;;6.40;89.83;97907.91;5046637;28;20156;-73
2021/10/17 01:24:53;;;;;;;24.13;13.50;;;7.30;99.90;;;6.23;90.28;97910.81;5044803;28;20436;-72
2021/10/17 01:27:20;;;;;;;31.65;16.92;;;7.40;99.90;;;6.17;90.43;97908.34;5043833;28;20124;-73
2021/10/17 01:29:48;;;;;;;33.53;17.67;;;7.40;99.90;;;5.94;91.40;97906.19;5047023;28;20073;-73
2021/10/17 01:32:15;;;;;;;28.98;16.52;;;7.30;99.90;;;5.99;91.33;97897.53;5049009;28;20124;-73
2021/10/17 01:34:43;;;;;;;25.73;14.82;;;7.20;99.90;;;6.08;90.84;97905.06;5047262;28;20140;-73
2021/10/17 01:37:10;;;;;;;26.77;14.63;;;7.20;99.90;;;6.09;91.00;97903.38;5046694;28;20124;-72
2021/10/17 01:39:37;;;;;;;19.65;10.63;;;7.20;99.90;;;6.30;90.25;97904.66;5050463;28;20135;-73
2021/10/17 01:42:04;;;;;;;23.08;11.95;;;7.20;99.90;;;6.38;89.73;97905.34;5048460;28;20055;-72
2021/10/17 01:44:34;;;;;;;20.83;11.07;;;7.30;99.90;;;6.44;89.43;97910.38;5045285;28;20140;-73
2021/10/17 01:47:01;;;;;;;24.15;12.77;;;7.40;99.90;;;6.49;89.57;97907.69;5049097;28;20044;-72
2021/10/17 01:49:28;;;;;;;22.58;12.30;;;7.40;99.90;;;6.43;89.18;97903.53;5045502;28;20481;-72
2021/10/17 01:51:55;;;;;;;23.77;13.48;;;7.50;99.90;;;6.06;89.90;97901.66;5046176;28;20143;-73
2021/10/17 01:54:23;;;;;;;21.20;12.35;;;7.50;99.90;;;5.59;92.10;97903.38;5048407;28;20091;-72
2021/10/17 01:56:50;;;;;;;18.27;11.15;;;7.30;99.90;;;5.49;92.86;97898.41;5050887;28;20076;-72
2021/10/17 01:59:17;;;;;;;19.13;10.77;;;7.20;99.90;;;5.58;92.47;97901.66;5046701;28;20057;-71
2021/10/17 02:01:44;;;;;;;15.68;8.48;;;7.10;99.90;;;5.79;91.40;97897.00;5046693;28;20118;-72
2021/10/17 02:04:12;;;;;;;18.67;11.43;;;7.10;99.90;;;5.63;90.96;97894.72;5047868;28;20049;-72
2021/10/17 02:06:39;;;;;;;19.70;11.38;;;7.00;99.90;;;5.82;90.46;97894.41;5049489;28;20125;-72
2021/10/17 02:09:06;;;;;;;20.63;10.82;;;7.00;99.90;;;5.80;90.15;97897.00;5047248;28;20443;-72
2021/10/17 02:11:33;;;;;;;17.17;9.88;;;7.00;99.90;;;5.94;90.02;97891.63;5045710;28;20199;-72
2021/10/17 02:14:00;;;;;;;18.23;9.60;;;7.10;99.90;;;6.01;90.36;97890.63;5047732;28;20472;-72
2021/10/17 02:16:27;;;;;;;17.30;9.75;;;7.10;99.90;;;6.18;89.97;97882.56;5039780;28;20127;-71
2021/10/17 02:18:54;;;;;;;17.23;10.00;;;7.20;99.90;;;6.23;90.11;97888.47;5044983;28;20053;-72
2021/10/17 02:21:20;;;;;;;16.13;9.55;;;7.30;99.90;;;6.38;89.70;97889.88;5035479;28;20159;-72
2021/10/17 02:23:48;;;;;;;24.58;13.05;;;7.40;99.90;;;6.38;89.84;97884.72;5041335;28;20052;-72
2021/10/17 02:26:15;;;;;;;23.02;13.20;;;7.50;99.90;;;5.97;90.87;97886.38;5039941;28;20132;-71
2021/10/17 02:28:42;;;;;;;20.02;11.77;;;7.40;99.90;;;5.59;92.09;97889.66;5040812;28;20045;-71
2021/10/17 02:31:09;;;;;;;23.58;12.35;;;7.30;99.90;;;5.42;92.57;97884.78;5036509;28;20124;-71
2021/10/17 02:33:39;;;;;;;19.08;10.77;;;7.20;99.90;;;5.31;92.61;97891.84;5046584;28;20047;-71
2021/10/17 02:36:05;;;;;;;16.48;10.20;;;7.10;99.90;;;5.17;93.40;97887.75;5046329;28;20517;-71
2021/10/17 02:38:38;;;;;;;18.65;10.48;;;7.00;99.90;;;5.11;93.32;97881.84;5034887;28;20057;-71
2021/10/17 02:41:05;;;;;;;18.80;10.85;;;6.90;99.90;;;5.23;93.23;97881.69;5034604;28;20054;-71
2021/10/17 02:43:32;;;;;;;18.60;11.05;;;6.80;99.90;;;5.05;93.86;97885.41;5041838;28;20139;-71
2021/10/17 02:46:01;;;;;;;24.20;11.48;;;6.70;99.90;;;5.02;94.32;97880.31;5043866;28;20128;-71
2021/10/17 02:48:28;;;;;;;20.65;11.15;;;6.60;99.90;;;5.20;93.87;97871.41;5045613;28;20048;-71
2021/10/17 02:50:55;;;;;;;22.45;12.15;;;6.60;99.90;;;5.04;94.21;97876.00;5034350;28;20128;-71
2021/10/17 02:53:22;;;;;;;24.02;12.10;;;6.50;99.90;;;4.94;94.92;97882.97;5031384;28;20132;-71
2021/10/17 02:55:49;;;;;;;24.08;10.65;;;6.50;99.90;;;5.10;94.48;97875.88;5034836;28;20057;-72
2021/10/17 02:58:16;;;;;;;30.13;13.18;;;6.40;99.90;;;4.89;95.46;97874.50;5045092;28;20160;-71
2021/10/17 03:00:44;;;;;;;21.00;10.45;;;6.40;99.90;;;5.06;95.21;97868.22;5043983;28;20128;-71
2021/10/17 03:03:11;;;;;;;26.52;12.70;;;6.40;99.90;;;5.03;94.83;97869.97;5050652;28;20052;-72
2021/10/17 03:05:38;;;;;;;24.25;12.52;;;6.40;99.90;;;5.10;94.46;97869.88;5037075;28;20049;-71
2021/10/17 03:08:05;;;;;;;25.40;12.95;;;6.40;99.90;;;5.05;94.66;97871.69;5043713;28;20124;-71
2021/10/17 03:10:32;;;;;;;19.08;10.23;;;6.50;99.90;;;5.12;94.85;97873.28;5038672;28;20073;-72
2021/10/17 03:12:59;;;;;;;26.50;13.27;;;6.50;99.90;;;4.97;95.55;97874.38;5043398;28;20133;-71
2021/10/17 03:15:26;;;;;;;21.13;11.52;;;6.40;99.90;;;5.18;95.31;97873.19;5046580;28;20041;-71
2021/10/17 03:17:54;;;;;;;31.98;13.60;;;6.40;99.90;;;5.10;95.14;97869.88;5049642;28;20147;-71
2021/10/17 03:20:23;;;;;;;20.63;10.98;;;6.50;99.90;;;5.20;95.11;97872.28;5039953;28;20100;-71
2021/10/17 03:22:50;;;;;;;28.23;13.40;;;6.60;99.90;;;5.38;94.75;97870.25;5047167;28;20076;-71
2021/10/17 03:25:17;;;;;;;23.90;12.40;;;6.60;99.90;;;5.31;94.75;97859.22;5047023;28;20124;-72
2021/10/17 03:27:44;;;;;;;21.17;11.65;;;6.70;99.90;;;5.29;94.61;97867.84;5042797;28;20045;-71
2021/10/17 03:30:14;;;;;;;20.90;11.80;;;6.70;99.90;;;5.11;95.45;97859.56;5038159;28;20077;-72
2021/10/17 03:32:41;;;;;;;19.17;10.07;;;6.80;99.90;;;5.30;95.19;97861.84;5044592;28;20489;-71
2021/10/17 03:35:08;;;;;;;16.05;8.65;;;6.70;99.90;;;5.63;93.98;97852.66;5042812;28;20208;-71
2021/10/17 03:37:35;;;;;;;25.15;10.98;;;6.80;99.90;;;5.60;92.97;97850.16;5045056;28;20132;-71
2021/10/17 03:40:03;;;;;;;19.92;9.50;;;6.80;99.90;;;5.82;92.45;97861.75;5048231;28;20128;-71
2021/10/17 03:42:30;;;;;;;20.60;10.73;;;6.90;99.90;;;5.94;92.08;97852.97;5030638;28;20212;-71
2021/10/17 03:44:57;;;;;;;17.60;10.15;;;7.00;99.90;;;5.97;92.06;97852.91;5045568;28;20132;-71
2021/10/17 03:47:24;;;;;;;17.73;9.32;;;7.00;99.90;;;5.93;92.32;97860.69;5044951;28;20120;-72
2021/10/17 03:49:51;;;;;;;16.88;9.10;;;7.00;99.90;;;5.84;92.52;97854.00;5048369;28;20504;-71
2021/10/17 03:52:19;;;;;;;18.92;9.70;;;7.10;99.90;;;5.95;92.13;97859.81;5041806;28;20081;-71
2021/10/17 03:54:47;;;;;;;20.27;11.07;;;7.10;99.90;;;5.99;91.76;97853.72;5035806;28;20064;-71
2021/10/17 03:57:14;;;;;;;19.20;10.18;;;7.10;99.90;;;5.97;91.81;97860.63;5049846;28;20059;-72
2021/10/17 03:59:40;;;;;;;24.25;11.65;;;7.10;99.90;;;6.03;92.22;97854.53;5038741;28;20081;-72
2021/10/17 04:02:07;;;;;;;25.55;11.68;;;7.00;99.90;;;5.97;92.88;97852.06;5043422;28;20076;-71
2021/10/17 04:04:34;;;;;;;24.92;11.98;;;7.00;99.90;;;5.93;92.80;97853.81;5043482;28;20041;-71
2021/10/17 04:07:01;;;;;;;18.80;10.55;;;7.00;99.90;;;5.99;93.00;97856.28;5034667;28;20412;-71
2021/10/17 04:09:28;;;;;;;19.35;10.45;;;7.00;99.90;;;5.99;93.01;97855.44;5029525;28;20046;-72
2021/10/17 04:11:55;;;;;;;15.98;9.43;;;7.00;99.90;;;6.02;92.74;97850.22;5046702;28;20080;-71
2021/10/17 04:14:22;;;;;;;19.73;10.65;;;7.00;99.90;;;6.00;92.91;97852.00;5049882;28;20131;-71
2021/10/17 04:16:49;;;;;;;17.33;9.52;;;7.10;99.90;;;6.03;92.99;97857.09;5042321;28;20573;-72
2021/10/17 04:19:16;;;;;;;13.77;9.05;;;7.10;99.90;;;6.05;92.41;97853.59;5046330;28;20095;-71
2021/10/17 04:21:43;;;;;;;16.75;9.15;;;7.10;99.90;;;6.03;92.67;97857.94;5042102;28;20087;-72
2021/10/17 04:24:10;;;;;;;13.18;7.72;;;7.20;99.90;;;6.19;92.20;97847.31;5045167;28;20081;-72
2021/10/17 04:26:37;;;;;;;14.85;8.30;;;7.30;99.90;;;6.27;91.74;97856.59;5043667;28;20120;-72
2021/10/17 04:29:04;;;;;;;14.93;9.73;;;7.30;99.90;;;6.28;91.60;97854.88;5048199;28;20077;-72
2021/10/17 04:31:31;;;;;;;13.70;7.63;;;7.20;99.90;;;6.41;91.40;97846.00;5044790;28;20080;-72
2021/10/17 04:33:59;;;;;;;16.20;9.05;;;7.30;99.90;;;6.36;91.20;97852.94;5037249;28;20568;-71
2021/10/17 04:36:26;;;;;;;16.27;8.13;;;7.30;99.90;;;6.42;90.71;97847.69;5038975;28;20123;-71
2021/10/17 04:38:53;;;;;;;13.73;7.80;;;7.40;99.90;;;6.41;91.03;97855.44;5046060;28;20084;-71
2021/10/17 04:41:20;;;;;;;14.02;7.05;;;7.50;99.90;;;6.56;90.57;97855.09;5044785;28;20129;-71
2021/10/17 04:43:48;;;;;;;14.05;7.32;;;7.50;99.90;;;6.53;90.38;97852.59;5046897;28;20120;-71
2021/10/17 04:46:15;;;;;;;13.02;7.75;;;7.60;99.90;;;6.40;90.96;97856.31;5046091;28;20072;-72
2021/10/17 04:48:42;;;;;;;13.45;7.47;;;7.60;99.90;;;6.45;90.89;97852.78;5034732;28;20049;-71
2021/10/17 04:51:09;;;;;;;15.15;8.05;;;7.60;99.90;;;6.49;90.76;97853.56;5034427;28;20102;-72
2021/10/17 04:53:36;;;;;;;14.70;8.63;;;7.60;99.90;;;6.30;91.42;97853.09;5039303;28;20073;-71
2021/10/17 04:56:03;;;;;;;16.25;9.85;;;7.50;99.90;;;6.37;91.64;97848.66;5035455;28;20084;-72
2021/10/17 04:58:30;;;;;;;18.33;10.27;;;7.30;99.90;;;6.30;91.84;97849.69;5045593;28;20118;-72
2021/10/17 05:00:59;;;;;;;16.15;9.65;;;7.20;99.90;;;6.28;91.90;97855.69;5044545;28;20103;-71
2021/10/17 05:03:27;;;;;;;14.18;7.88;;;7.20;99.90;;;6.32;91.48;97858.22;5045852;28;20052;-71
2021/10/17 05:05:54;;;;;;;20.33;9.98;;;7.20;99.90;;;6.28;91.45;97858.28;5052389;28;20059;-72
2021/10/17 05:08:21;;;;;;;12.93;7.75;;;7.20;99.90;;;6.20;91.66;97859.31;5052657;28;20150;-71
2021/10/17 05:10:48;;;;;;;14.45;8.60;;;7.20;99.90;;;6.24;91.76;97861.81;5049166;28;20096;-72
2021/10/17 05:13:16;;;;;;;17.35;10.63;;;7.20;99.90;;;6.24;91.88;97861.81;5043250;28;20045;-71
2021/10/17 05:15:43;;;;;;;16.75;8.90;;;7.20;99.90;;;6.18;92.28;97861.94;5045003;28;20049;-71
2021/10/17 05:18:10;;;;;;;12.23;7.30;;;7.20;99.90;;;6.23;92.09;97867.84;5052241;28;20129;-71
2021/10/17 05:20:37;;;;;;;17.88;9.00;;;7.20;99.90;;;6.30;91.83;97866.00;5034015;28;20128;-71
2021/10/17 05:23:05;;;;;;;14.18;7.95;;;7.20;99.90;;;6.37;91.18;97864.97;5051050;28;20095;-71
2021/10/17 05:25:35;;;;;;;21.75;9.85;;;7.20;99.90;;;6.25;91.27;97866.09;5050066;28;20059;-71
2021/10/17 05:28:02;;;;;;;14.52;8.20;;;7.20;99.90;;;6.16;92.08;97867.97;5038747;28;20472;-72
2021/10/17 05:30:34;;;;;;;16.98;9.10;;;7.10;99.90;;;6.07;92.46;97872.47;5046440;28;20509;-72
2021/10/17 05:33:02;;;;;;;18.15;10.27;;;7.20;99.90;;;5.94;93.06;97875.28;5043382;28;20114;-71
2021/10/17 05:35:30;;;;;;;17.90;11.02;;;7.20;99.90;;;5.83;93.26;97871.16;5044141;28;20071;-72
2021/10/17 05:37:57;;;;;;;21.20;10.27;;;7.20;99.90;;;5.85;92.97;97879.72;5050810;28;20091;-71
2021/10/17 05:40:24;;;;;;;22.30;12.27;;;7.10;99.90;;;5.86;92.97;97876.28;5045251;28;20093;-72
2021/10/17 05:42:51;;;;;;;20.33;11.07;;;7.10;99.90;;;5.92;92.73;97874.44;5043648;28;20077;-72
2021/10/17 05:45:18;;;;;;;23.08;13.35;;;7.10;99.90;;;5.90;92.40;97876.22;5050500;28;20084;-71
2021/10/17 05:47:45;;;;;;;21.02;12.55;;;7.10;99.90;;;5.92;92.28;97883.03;5051442;28;20095;-72
2021/10/17 05:50:12;;;;;;;16.27;10.27;;;7.10;99.90;;;5.88;92.50;97878.81;5047985;28;20072;-71
2021/10/17 05:52:39;;;;;;;16.63;9.40;;;7.00;99.90;;;5.89;92.14;97888.25;5041282;28;20148;-71
2021/10/17 05:55:06;;;;;;;17.75;10.13;;;7.00;99.90;;;5.69;93.08;97895.50;5047618;28;20127;-71
2021/10/17 05:57:36;;;;;;;21.02;10.90;;;7.00;99.90;;;5.59;93.42;97887.94;5051679;28;20045;-72
2021/10/17 06:00:06;;;;;;;17.15;9.88;;;6.90;99.90;;;5.55;93.43;97894.00;5051965;28;20643;-72
2021/10/17 06:02:33;;;;;;;16.83;10.93;;;6.80;99.90;;;5.42;93.63;97903.66;5046485;28;20045;-71
2021/10/17 06:05:00;;;;;;;20.30;11.65;;;6.80;99.90;;;5.40;93.72;97902.81;5052097;28;20045;-71
2021/10/17 06:07:27;;;;;;;20.95;11.55;;;6.80;99.90;;;5.32;94.30;97903.84;5043610;28;20099;-71
2021/10/17 06:09:54;;;;;;;19.83;9.80;;;6.70;99.90;;;5.36;93.99;97901.19;5045128;28;20504;-71
2021/10/17 06:12:21;;;;;;;31.15;15.60;;;6.60;99.90;;;5.28;94.33;97902.19;5051247;28;20133;-72
2021/10/17 06:14:48;;;;;;;27.65;14.90;;;6.50;99.90;;;5.22;94.57;97918.56;5046495;28;20068;-71
2021/10/17 06:17:18;;;;;;;26.75;13.43;;;6.50;99.90;;;5.29;94.46;97921.91;5044029;28;20393;-71
2021/10/17 06:19:45;;;;;;;21.23;9.75;;;6.50;99.90;;;5.40;93.41;97917.44;5049523;28;20072;-71
2021/10/17 06:22:12;;;;;;;19.35;10.68;;;6.50;99.90;;;5.53;92.69;97923.25;5049560;28;20132;-71
2021/10/17 06:24:39;;;;;;;18.77;10.00;;;6.50;99.90;;;5.62;91.65;97921.34;5042886;28;20045;-71
2021/10/17 06:27:06;;;;;;;28.55;15.35;;;6.50;99.90;;;5.45;92.40;97926.78;5044342;28;20567;-71
2021/10/17 06:29:33;;;;;;;38.88;16.58;;;6.50;99.90;;;5.27;93.12;97921.06;5045144;28;20048;-71
2021/10/17 06:32:00;;;;;;;35.05;18.38;;;6.60;99.90;;;5.19;94.09;97927.19;5045013;28;20132;-71
2021/10/17 06:34:27;;;;;;;27.30;15.15;;;6.50;99.90;;;5.22;94.35;97929.75;5047348;28;20118;-71
2021/10/17 06:36:54;;;;;;;26.00;15.20;;;6.50;99.90;;;5.32;93.65;97929.59;5046485;28;20140;-71
2021/10/17 06:39:21;;;;;;;24.25;13.25;;;6.50;99.90;;;5.26;93.84;97927.09;5045724;28;20136;-71
2021/10/17 06:41:48;;;;;;;17.95;8.60;;;6.50;99.90;;;5.40;93.42;97925.16;5037771;28;20063;-71
2021/10/17 06:44:16;;;;;;;15.90;9.18;;;6.50;99.90;;;5.42;92.88;97934.53;5044610;28;20485;-71
2021/10/17 06:46:43;;;;;;;19.67;10.38;;;6.50;99.90;;;5.58;92.32;97927.41;5044463;28;20036;-71
2021/10/17 06:49:10;;;;;;;15.50;9.20;;;6.60;99.90;;;5.87;91.45;97933.78;5045682;28;20124;-71
2021/10/17 06:51:37;;;;;;;17.55;9.98;;;6.70;99.90;;;5.90;90.98;97938.03;5045739;28;20520;-71
2021/10/17 06:54:04;;;;;;;16.08;10.38;;;6.80;99.90;;;6.00;90.79;97935.31;5039044;28;20060;-71
2021/10/17 06:56:31;;;;;;;18.98;8.77;;;6.90;99.90;;;6.00;90.76;97937.88;5049751;28;20132;-70
2021/10/17 06:58:58;;;;;;;14.38;8.55;;;7.00;99.90;;;6.17;90.43;97941.88;5041866;28;20080;-70
2021/10/17 07:01:25;;;;;;;14.52;8.13;;;7.20;99.90;;;6.27;90.07;97939.09;5048171;28;20136;-72
2021/10/17 07:03:52;;;;;;;17.88;9.50;;;7.30;99.90;;;6.34;89.97;97942.41;5046834;28;20156;-72
2021/10/17 07:06:19;;;;;;;16.95;9.93;;;7.40;99.90;;;6.50;89.34;97942.94;5050510;28;20232;-72
2021/10/17 07:08:46;;;;;;;17.58;9.68;;;7.50;99.90;;;6.60;89.37;97936.69;5043561;28;20044;-71
2021/10/17 07:11:13;;;;;;;16.73;10.05;;;7.60;99.90;;;6.80;88.58;97946.59;5041066;28;20204;-72
2021/10/17 07:13:40;;;;;;;14.65;8.70;;;7.80;99.90;;;6.90;88.62;97940.34;5048869;28;20073;-72
2021/10/17 07:16:07;;;;;;;16.15;9.23;;;7.90;99.90;;;7.01;88.19;97942.69;5043930;28;20533;-72
2021/10/17 07:18:34;;;;;;;15.95;9.48;;;8.10;99.90;;;7.13;87.96;97938.97;5049878;28;20503;-71
2021/10/17 07:21:01;;;;;;;17.13;10.25;;;8.30;99.90;;;7.28;87.19;97948.13;5043181;28;20140;-72
2021/10/17 07:23:28;;;;;;;17.48;10.70;;;8.30;99.90;;;7.23;87.15;97949.94;5047301;28;20080;-71
2021/10/17 07:25:55;;;;;;;15.57;10.07;;;8.40;99.90;;;7.35;86.74;97949.66;5045641;28;20052;-72
2021/10/17 07:28:22;;;;;;;15.60;9.15;;;8.40;99.90;;;7.60;86.45;97949.91;5050044;28;20131;-71
2021/10/17 07:30:49;;;;;;;24.23;11.77;;;8.50;99.90;;;7.51;86.79;97948.41;5047990;28;20132;-71
2021/10/17 07:33:16;;;;;;;18.63;9.82;;;8.70;99.90;;;7.39;87.03;97953.00;5048389;28;20110;-71
2021/10/17 07:35:43;;;;;;;19.30;11.70;;;8.80;99.90;;;7.58;86.58;97962.03;5045163;28;20048;-72
2021/10/17 07:38:11;;;;;;;23.98;14.98;;;8.90;99.90;;;7.73;86.07;97953.03;5040924;28;20184;-72
2021/10/17 07:40:38;;;;;;;24.88;15.48;;;8.90;99.90;;;7.67;86.46;97953.22;5042524;28;20513;-71
2021/10/17 07:43:05;;;;;;;20.08;13.82;;;9.00;99.90;;;7.95;85.40;97953.34;5048484;28;20128;-72
2021/10/17 07:45:32;;;;;;;21.15;12.40;;;9.00;99.90;;;7.73;85.71;97953.03;5041469;28;20036;-72
2021/10/17 07:48:00;;;;;;;22.60;12.70;;;9.00;99.90;;;7.93;85.96;97952.53;5043661;28;20364;-72
2021/10/17 07:50:28;;;;;;;22.58;12.75;;;9.00;99.90;;;7.71;86.22;97955.69;5044674;28;20071;-72
2021/10/17 07:52:55;;;;;;;18.65;11.60;;;9.10;99.90;;;7.68;86.66;97954.88;5043391;28;20076;-72
2021/10/17 07:55:22;;;;;;;25.60;15.70;;;9.30;99.90;;;7.42;87.98;97958.13;5039952;28;20071;-71
2021/10/17 07:57:52;;;;;;;22.70;13.63;;;9.40;99.90;;;7.72;88.47;97953.94;5045113;28;20080;-72
2021/10/17 08:00:23;;;;;;;28.08;17.98;;;9.40;99.90;;;7.97;87.60;97955.00;5045308;28;20095;-72
2021/10/17 08:02:50;;;;;;;29.52;18.85;;;9.40;99.90;;;7.87;87.48;97953.56;5044140;28;20057;-71
2021/10/17 08:05:17;;;;;;;31.15;18.30;;;9.40;99.90;;;8.23;86.91;97937.94;5046538;28;20060;-72
2021/10/17 08:07:45;;;;;;;33.03;20.35;;;9.50;99.90;;;8.40;85.61;97947.00;5044864;28;20131;-71
2021/10/17 08:10:13;;;;;;;23.98;14.32;;;9.70;99.90;;;8.45;85.13;97956.34;5037300;28;20053;-71
2021/10/17 08:12:40;;;;;;;20.58;12.20;;;9.80;99.90;;;8.53;84.94;97948.34;5057612;28;20077;-72
2021/10/17 08:15:08;;;;;;;18.08;10.50;;;10.00;99.90;;;8.61;85.15;97938.63;5046319;28;20088;-72
2021/10/17 08:17:36;;;;;;;35.03;20.33;;;10.00;99.90;;;8.37;85.54;97946.19;5044896;28;20175;-72
2021/10/17 08:20:06;;;;;;;19.38;12.73;;;9.90;99.90;;;8.39;85.60;97948.69;5045567;28;20099;-72
2021/10/17 08:22:35;;;;;;;27.65;17.52;;;9.70;99.90;;;8.00;86.95;97951.47;5044737;28;20053;-72
2021/10/17 08:25:04;;;;;;;30.23;18.10;;;9.50;99.90;;;7.80;88.54;97949.44;5039224;28;20051;-72
2021/10/17 08:27:31;;;;;;;27.83;16.45;;;9.40;99.90;;;7.69;89.29;97951.44;5036038;28;20465;-72
2021/10/17 08:29:58;;;;;;;27.08;14.38;;;9.40;99.90;;;7.73;89.92;97945.28;5045062;28;20124;-72
2021/10/17 08:32:25;;;;;;;38.33;18.45;;;9.40;99.90;;;7.79;90.58;97939.97;5040656;28;20125;-72
2021/10/17 08:34:52;;;;;;;32.17;15.20;;;9.40;99.90;;;8.20;89.25;97939.78;5044894;28;20095;-72
2021/10/17 08:37:19;;;;;;;25.42;14.35;;;9.40;99.90;;;8.55;88.47;97944.84;5041913;28;20131;-72
2021/10/17 08:39:51;;;;;;;28.85;15.25;;;9.50;99.90;;;8.75;86.01;97933.88;5040158;28;20454;-72
2021/10/17 08:42:23;;;;;;;28.90;16.67;;;9.80;99.90;;;8.44;87.81;97940.84;5046285;28;20053;-72
2021/10/17 08:45:05;;;;;;;33.47;19.92;;;9.90;99.90;;;8.22;89.10;97945.75;5046770;28;20052;-72
2021/10/17 08:47:33;;;;;;;28.23;17.42;;;10.00;99.90;;;7.98;90.30;97948.06;5039749;28;20135;-71
2021/10/17 08:50:01;;;;;;;29.17;17.23;;;10.00;99.90;;;8.25;88.82;97953.41;5040707;28;20077;-72
2021/10/17 08:52:28;;;;;;;23.85;13.98;;;9.90;99.90;;;8.50;87.80;97953.63;5047677;28;20473;-72
2021/10/17 08:54:55;;;;;;;28.38;16.30;;;9.90;99.90;;;8.44;87.31;97946.88;5046370;28;20136;-72
2021/10/17 08:57:22;;;;;;;29.83;15.68;;;9.80;99.90;;;8.15;88.80;97953.66;5042426;28;20510;-71
2021/10/17 08:59:51;;;;;;;26.05;15.13;;;9.90;99.90;;;8.56;89.01;97956.88;5045982;28;20145;-72
2021/10/17 09:02:23;;;;;;;20.08;12.77;;;10.00;99.90;;;9.15;86.96;97961.19;5038913;28;20076;-72
2021/10/17 09:05:08;;;;;;;25.00;12.95;;;10.30;99.90;;;9.47;84.73;97956.75;5038706;28;20054;-72
2021/10/17 09:07:35;;;;;;;26.23;15.07;;;10.60;99.90;;;8.98;85.88;97958.25;5046391;28;20056;-72
2021/10/17 09:10:16;;;;;;;22.00;13.07;;;10.80;99.90;;;9.11;85.31;97961.31;5030654;28;20045;-71
2021/10/17 09:12:46;;;;;;;24.30;14.38;;;10.80;99.90;;;8.96;85.66;97958.31;5036008;28;20071;-72
2021/10/17 09:15:25;;;;;;;22.27;14.20;;;10.90;99.90;;;9.12;85.33;97952.66;5037230;28;20134;-72
2021/10/17 09:18:19;;;;;;;18.27;12.68;;;11.00;99.90;;;9.93;83.62;97954.38;5041688;28;20119;-72
2021/10/17 09:20:46;;;;;;;23.25;15.13;;;11.10;99.90;;;9.28;84.29;97960.78;5033587;28;20128;-72
2021/10/17 09:23:16;;;;;;;21.70;13.38;;;11.30;99.90;;;9.88;83.38;97956.28;5043411;28;20045;-72
2021/10/17 09:25:44;;;;;;;20.98;13.77;;;11.40;99.90;;;9.90;82.63;97959.66;5037549;28;20049;-71
2021/10/17 09:28:21;;;;;;;27.67;15.43;;;11.50;99.90;;;10.03;81.87;97955.75;5040553;28;20087;-72
2021/10/17 09:31:00;;;;;;;23.50;13.95;;;11.60;99.90;;;10.15;81.72;97951.88;5029369;28;20125;-71
2021/10/17 09:33:54;;;;;;;21.15;12.43;;;11.70;99.90;;;10.74;80.36;97948.94;5042683;28;20049;-71
2021/10/17 09:36:29;;;;;;;20.58;13.13;;;11.90;99.90;;;10.67;80.03;97955.22;5042982;28;20447;-71
2021/10/17 09:39:11;;;;;;;21.45;12.88;;;12.10;99.90;;;10.76;79.78;97951.44;5038242;28;20458;-72
2021/10/17 09:41:50;;;;;;;22.17;13.23;;;12.50;99.90;;;10.86;78.52;97950.22;5038081;28;20095;-71
2021/10/17 09:44:17;;;;;;;23.92;13.57;;;12.50;99.90;;;11.05;78.64;97951.19;5040146;28;20060;-71
2021/10/17 09:46:59;;;;;;;22.88;12.02;;;12.50;99.90;;;11.12;78.98;97953.56;5035982;28;20049;-71
2021/10/17 09:49:29;;;;;;;20.05;12.73;;;;;;;11.26;78.60;97954.69;5028339;28;20095;-71
2021/10/17 09:52:15;;;;;;;18.05;10.98;;;;;;;11.12;76.87;97953.56;5033022;28;20541;-71
2021/10/17 09:54:48;;;;;;;18.92;12.75;;;;;;;11.22;78.93;97949.69;5037840;28;20041;-71
2021/10/17 09:57:16;;;;;;;21.75;15.32;;;;;;;10.76;77.74;97944.50;5032645;28;20048;-71
2021/10/17 09:59:45;;;;;;;23.27;15.25;;;;;;;10.33;79.18;97953.00;5044809;28;20048;-72
2021/10/17 10:02:13;;;;;;;20.70;12.90;;;;;;;10.73;80.06;97949.81;5050933;28;20103;-72
2021/10/17 10:04:43;;;;;;;19.42;13.85;;;;;;;11.27;78.61;97950.38;5049596;28;20428;-72
2021/10/17 10:07:15;;;;;;;21.48;14.27;;;;;;;10.66;78.33;97953.56;5040979;28;20069;-72
2021/10/17 10:09:47;;;;;;;20.73;13.30;;;;;;;10.93;78.82;97950.84;5037542;28;20046;-72
2021/10/17 10:12:17;;;;;;;23.38;13.80;;;;;;;10.92;78.96;97954.31;5040090;28;20067;-72
2021/10/17 10:14:47;;;;;;;22.55;15.25;;;;;;;10.38;79.82;97949.38;5036287;28;20060;-71
2021/10/17 10:17:17;;;;;;;21.23;13.70;;;;;;;10.68;79.05;97952.59;5044043;28;20128;-72
2021/10/17 10:19:45;;;;;;;26.08;15.98;;;;;;;10.17;82.22;97963.91;5050994;28;20513;-71
2021/10/17 10:22:17;;;;;;;26.02;16.50;;;;;;;10.39;80.91;97966.63;5040979;28;20132;-72
2021/10/17 10:24:50;;;;;;;31.90;16.63;;;;;;;10.04;82.15;97971.25;5049191;28;20551;-72
2021/10/17 10:27:19;;;;;;;28.15;17.40;;;;;;;9.73;83.22;97966.25;5040692;28;20103;-72